Time;durP1;ratioP1;P1;durP2;ratioP2;P2;SDS_P1;SDS_P2;PMS_P1;PMS_P2;Temp;Humidity;BMP_temperature;BMP_pressure;BME280_temperature;BME280_humidity;BME280_pressure;Samples;Min_cycle;Max_cycle;Signal;HPM_P1;HPM_P2
2022/05/17 00:01:23;;;;;;;12.23;4.68;;;;;;;13.60;100.00;101894.66;5009260;28;20051;-81
2022/05/17 00:03:49;;;;;;;10.88;4.80;;;;;;;13.59;100.00;101893.81;5005931;28;20024;-81
2022/05/17 00:06:15;;;;;;;13.07;4.50;;;;;;;13.57;100.00;101895.69;5031137;28;21054;-80
2022/05/17 00:08:41;;;;;;;9.07;4.43;;;;;;;13.57;100.00;101895.69;5008782;28;20484;-80
2022/05/17 00:11:09;;;;;;;12.15;4.90;;;;;;;13.56;100.00;101893.94;5024966;28;20045;-81
2022/05/17 00:13:34;;;;;;;10.88;4.50;;;;;;;13.55;100.00;101884.22;5006788;28;20051;-81
2022/05/17 00:16:01;;;;;;;8.77;4.43;;;;;;;13.55;100.00;101886.88;5007156;28;20041;-80
2022/05/17 00:18:27;;;;;;;11.95;4.97;;;;;;;13.53;100.00;101889.63;5001144;28;20172;-80
2022/05/17 00:20:52;;;;;;;11.73;4.65;;;;;;;13.54;100.00;101890.47;5008779;28;20029;-82
2022/05/17 00:23:19;;;;;;;10.95;4.88;;;;;;;13.53;100.00;101886.09;5015492;28;20589;-81
2022/05/17 00:25:47;;;;;;;10.18;4.07;;;;;;;13.53;100.00;101889.63;5023908;28;20738;-80
2022/05/17 00:28:14;;;;;;;11.25;4.90;;;;;;;13.53;100.00;101899.38;5005424;28;20021;-81
2022/05/17 00:30:41;;;;;;;9.00;4.47;;;;;;;13.52;100.00;101893.19;4991078;28;20501;-81
2022/05/17 00:33:06;;;;;;;9.82;4.07;;;;;;;13.51;100.00;101895.94;4981542;28;20040;-81
2022/05/17 00:35:32;;;;;;;8.50;4.30;;;;;;;13.52;100.00;101887.03;5007953;28;20029;-81
2022/05/17 00:37:57;;;;;;;11.80;4.43;;;;;;;13.53;100.00;101883.44;5021628;28;20041;-81
2022/05/17 00:40:23;;;;;;;9.85;4.60;;;;;;;13.54;100.00;101893.13;5001532;28;20026;-81
2022/05/17 00:42:49;;;;;;;6.50;3.83;;;;;;;13.56;100.00;101893.94;5025148;28;20072;-81
2022/05/17 00:45:14;;;;;;;7.78;4.60;;;;;;;13.56;100.00;101889.47;5009134;28;20064;-81
2022/05/17 00:47:43;;;;;;;10.57;4.60;;;;;;;13.57;100.00;101882.38;5006778;28;20037;-81
2022/05/17 00:50:32;;;;;;;12.00;4.78;;;;;;;13.57;100.00;101888.56;5006730;28;20037;-81
2022/05/17 00:53:17;;;;;;;8.90;4.53;;;;;;;13.57;100.00;101885.88;5006112;28;20207;-82
2022/05/17 00:55:52;;;;;;;11.95;4.93;;;;;;;13.56;100.00;101881.50;5025676;28;20045;-81
2022/05/17 00:58:30;;;;;;;12.07;4.90;;;;;;;13.55;100.00;101886.88;4998977;28;20044;-81
2022/05/17 01:01:10;;;;;;;10.38;4.55;;;;;;;13.52;100.00;101887.03;5009810;28;20045;-81
2022/05/17 01:04:08;;;;;;;16.05;4.82;;;;;;;13.50;100.00;101888.88;5016234;28;20041;-81
2022/05/17 01:06:46;;;;;;;12.48;5.25;;;;;;;13.46;100.00;101882.81;5007386;28;20033;-81
2022/05/17 01:09:12;;;;;;;10.32;4.70;;;;;;;13.43;100.00;101883.78;4995976;28;20037;-81
2022/05/17 01:11:39;;;;;;;10.23;3.97;;;;;;;13.42;100.00;101878.53;5006865;28;20608;-81
2022/05/17 01:16:48;;;;;;;8.95;4.20;;;;;;;13.36;100.00;101879.66;5011079;28;20033;-81
2022/05/17 01:19:15;;;;;;;7.32;4.50;;;;;;;13.34;100.00;101878.81;5005397;28;20438;-81
2022/05/17 01:21:41;;;;;;;9.98;4.53;;;;;;;13.33;100.00;101882.41;5002434;28;20092;-81
2022/05/17 01:24:06;;;;;;;10.95;5.20;;;;;;;13.32;100.00;101883.34;4998822;28;20681;-81
2022/05/17 01:26:35;;;;;;;14.13;5.03;;;;;;;13.29;100.00;101879.00;5025379;28;20068;-81
2022/05/17 01:29:04;;;;;;;11.35;4.80;;;;;;;13.27;100.00;101883.53;5008658;28;20029;-81
2022/05/17 01:31:32;;;;;;;9.63;4.65;;;;;;;13.27;100.00;101880.88;4968184;28;20030;-81
2022/05/17 01:33:58;;;;;;;10.88;4.80;;;;;;;13.26;100.00;101876.50;5021213;28;20044;-80
2022/05/17 01:36:23;;;;;;;11.18;4.95;;;;;;;13.24;100.00;101875.66;5005029;28;20170;-82
2022/05/17 01:38:53;;;;;;;9.02;4.07;;;;;;;13.24;100.00;101875.66;4991686;28;20033;-81
2022/05/17 01:41:19;;;;;;;7.20;3.92;;;;;;;13.23;100.00;101881.91;5007248;28;20036;-80
2022/05/17 01:43:45;;;;;;;7.00;4.18;;;;;;;13.22;100.00;101868.69;5026535;28;20538;-80
2022/05/17 01:46:10;;;;;;;12.07;5.35;;;;;;;13.22;100.00;101876.66;5010534;28;20034;-81
2022/05/17 01:48:37;;;;;;;9.60;4.72;;;;;;;13.22;100.00;101876.66;5010562;28;20361;-81
2022/05/17 01:51:04;;;;;;;8.80;4.63;;;;;;;13.19;100.00;101872.34;5010049;28;20492;-83
2022/05/17 01:53:33;;;;;;;13.57;4.78;;;;;;;13.16;100.00;101876.00;5026606;28;20045;-80
2022/05/17 01:55:58;;;;;;;11.05;4.63;;;;;;;13.15;100.00;101881.38;5028910;28;20073;-81
2022/05/17 01:58:24;;;;;;;9.10;4.32;;;;;;;13.12;100.00;101878.81;5011042;28;21001;-81
2022/05/17 02:00:49;;;;;;;8.70;4.57;;;;;;;13.07;100.00;101871.03;5025569;28;20193;-81
2022/05/17 02:03:15;;;;;;;8.88;4.25;;;;;;;13.06;100.00;101879.94;5011227;28;20104;-81
2022/05/17 02:05:40;;;;;;;11.32;4.80;;;;;;;13.04;100.00;101879.13;5011181;28;20029;-81
2022/05/17 02:08:06;;;;;;;12.07;5.03;;;;;;;13.04;100.00;101884.44;5017590;28;20041;-81
2022/05/17 02:10:32;;;;;;;8.98;4.50;;;;;;;12.99;100.00;101879.31;5029785;28;20029;-81
2022/05/17 02:13:01;;;;;;;14.25;4.60;;;;;;;12.98;100.00;101888.22;5014825;28;20037;-80
2022/05/17 02:15:27;;;;;;;11.52;4.53;;;;;;;12.97;100.00;101898.91;5015159;28;20063;-81
2022/05/17 02:17:53;;;;;;;11.85;4.72;;;;;;;12.96;100.00;101894.53;5014313;28;20633;-81
2022/05/17 02:20:19;;;;;;;9.77;4.22;;;;;;;12.94;100.00;101888.38;5004427;28;20029;-82
2022/05/17 02:22:44;;;;;;;9.95;4.63;;;;;;;12.93;100.00;101897.28;4996303;28;20116;-81
2022/05/17 02:25:11;;;;;;;10.98;3.97;;;;;;;12.89;100.00;101900.06;5013429;28;20045;-81
2022/05/17 02:27:37;;;;;;;11.95;4.63;;;;;;;12.85;100.00;101893.13;5004157;28;20099;-81
2022/05/17 02:30:05;;;;;;;7.15;4.78;;;;;;;12.83;100.00;101902.97;5029920;28;20040;-81
2022/05/17 02:32:31;;;;;;;12.10;4.10;;;;;;;12.80;100.00;101897.75;5014642;28;20036;-81
2022/05/17 02:34:56;;;;;;;12.02;4.63;;;;;;;12.78;100.00;101902.25;4992251;28;20072;-81
2022/05/17 02:37:22;;;;;;;9.20;4.40;;;;;;;12.77;100.00;101905.84;5014153;28;20075;-81
2022/05/17 02:39:48;;;;;;;12.93;4.45;;;;;;;12.74;100.00;101901.50;5031860;28;20044;-82
2022/05/17 02:42:13;;;;;;;11.45;4.70;;;;;;;12.72;100.00;101908.69;5031425;28;20041;-81
2022/05/17 02:44:39;;;;;;;11.07;4.30;;;;;;;12.69;100.00;101902.63;5013087;28;20044;-81
2022/05/17 02:47:05;;;;;;;8.23;4.30;;;;;;;12.67;100.00;101904.44;5004475;28;20116;-81
2022/05/17 02:49:32;;;;;;;10.98;4.88;;;;;;;12.64;100.00;101905.44;5021103;28;20044;-82
2022/05/17 02:52:01;;;;;;;13.05;4.85;;;;;;;12.62;100.00;101915.25;5011954;28;21483;-82
2022/05/17 02:54:26;;;;;;;8.48;4.70;;;;;;;12.58;100.00;101917.16;5008273;28;22069;-82
2022/05/17 02:56:52;;;;;;;11.35;4.53;;;;;;;12.55;100.00;101911.97;4998217;28;20543;-81
2022/05/17 02:59:19;;;;;;;11.43;4.50;;;;;;;12.53;100.00;101913.78;5012621;28;20041;-81
2022/05/17 03:01:46;;;;;;;9.60;4.38;;;;;;;12.53;100.00;101920.91;5012623;28;20166;-78
2022/05/17 03:04:13;;;;;;;12.65;4.80;;;;;;;12.52;100.00;101919.19;5002798;28;20160;-82
2022/05/17 03:06:43;;;;;;;10.50;4.60;;;;;;;12.50;100.00;101911.28;5016337;28;20094;-82
2022/05/17 03:09:09;;;;;;;13.25;4.45;;;;;;;12.49;100.00;101913.03;4997873;28;20052;-81
2022/05/17 03:11:41;;;;;;;11.23;4.22;;;;;;;12.48;100.00;101910.47;4993139;28;20021;-81
2022/05/17 03:14:08;;;;;;;12.27;5.00;;;;;;;12.46;100.00;101906.97;5027340;28;20124;-81
2022/05/17 03:16:34;;;;;;;6.50;4.28;;;;;;;12.45;100.00;101914.09;5030903;28;20025;-81
2022/05/17 03:19:00;;;;;;;5.72;3.97;;;;;;;12.42;100.00;101908.03;5009809;28;20035;-81
2022/05/17 03:21:26;;;;;;;8.27;3.53;;;;;;;12.40;100.00;101912.50;5005903;28;20032;-81
2022/05/17 03:23:52;;;;;;;9.70;4.13;;;;;;;12.40;100.00;101917.81;5012092;28;20032;-81
2022/05/17 03:26:18;;;;;;;6.97;4.15;;;;;;;12.38;100.00;101917.00;5016346;28;20082;-79
2022/05/17 03:28:43;;;;;;;8.60;4.40;;;;;;;12.34;100.00;101917.13;5014880;28;20579;-80
2022/05/17 03:31:10;;;;;;;10.00;4.15;;;;;;;12.34;100.00;101925.09;5028776;28;20037;-81
2022/05/17 03:33:37;;;;;;;8.88;4.25;;;;;;;12.32;100.00;101921.63;5014137;28;20033;-82
2022/05/17 03:36:04;;;;;;;10.95;4.35;;;;;;;12.29;100.00;101926.16;5012253;28;20067;-81
2022/05/17 03:38:29;;;;;;;8.85;4.18;;;;;;;12.27;100.00;101928.91;5030810;28;20037;-81
2022/05/17 03:40:55;;;;;;;10.88;4.18;;;;;;;12.26;100.00;101932.44;5033257;28;20318;-82
2022/05/17 03:43:21;;;;;;;9.35;3.80;;;;;;;12.24;100.00;101929.00;5033605;28;20380;-79
2022/05/17 03:45:47;;;;;;;8.25;3.72;;;;;;;12.23;100.00;101932.56;4988487;28;20119;-80
2022/05/17 03:48:13;;;;;;;9.15;4.15;;;;;;;12.20;100.00;101933.53;5009709;28;20036;-80
2022/05/17 03:50:39;;;;;;;7.88;4.40;;;;;;;12.21;100.00;101937.94;5023413;28;20065;-80
2022/05/17 03:53:05;;;;;;;8.85;3.85;;;;;;;12.22;100.00;101944.97;5012731;28;20044;-79
2022/05/17 03:55:31;;;;;;;8.35;4.55;;;;;;;12.22;100.00;101937.00;4990223;28;20037;-80
2022/05/17 03:57:57;;;;;;;7.47;3.67;;;;;;;12.22;100.00;101941.47;4998331;28;20553;-81
2022/05/17 04:00:23;;;;;;;10.27;4.10;;;;;;;12.21;100.00;101935.28;5031483;28;20041;-80
2022/05/17 04:02:49;;;;;;;8.70;3.65;;;;;;;12.24;100.00;101938.75;5027382;28;20090;-80
2022/05/17 04:05:16;;;;;;;7.85;3.33;;;;;;;12.23;100.00;101937.88;5011914;28;20032;-81
2022/05/17 04:07:41;;;;;;;11.00;3.72;;;;;;;12.24;100.00;101936.13;4998410;28;20048;-81
2022/05/17 04:10:09;;;;;;;7.25;3.70;;;;;;;12.26;100.00;101943.06;5025796;28;20041;-80
2022/05/17 04:12:34;;;;;;;6.70;3.55;;;;;;;12.28;100.00;101935.06;5012037;28;20882;-80
2022/05/17 04:15:00;;;;;;;11.07;4.68;;;;;;;12.29;100.00;101936.78;5013761;28;20045;-80
2022/05/17 04:17:26;;;;;;;6.88;3.60;;;;;;;12.32;100.00;101942.00;5021928;28;20029;-80
2022/05/17 04:19:51;;;;;;;5.45;3.10;;;;;;;12.33;100.00;101939.28;5021917;28;20082;-80
2022/05/17 04:22:17;;;;;;;8.95;4.05;;;;;;;12.36;100.00;101941.84;5013025;28;20044;-81
2022/05/17 04:24:42;;;;;;;9.82;3.60;;;;;;;12.40;100.00;101944.38;4993018;28;20102;-79
2022/05/17 04:27:09;;;;;;;6.07;3.63;;;;;;;12.42;100.00;101942.56;5029789;28;20068;-79
2022/05/17 04:29:34;;;;;;;7.15;3.42;;;;;;;12.47;100.00;101940.56;4996347;28;20025;-79
2022/05/17 04:32:00;;;;;;;9.68;3.03;;;;;;;12.50;100.00;101945.78;4997099;28;20582;-80
2022/05/17 04:34:25;;;;;;;10.93;3.40;;;;;;;12.54;100.00;101936.81;5013751;28;20086;-79
2022/05/17 04:36:51;;;;;;;7.18;2.78;;;;;;;12.59;100.00;101948.09;5031374;28;20025;-80
2022/05/17 04:39:17;;;;;;;9.48;3.63;;;;;;;12.62;100.00;101950.66;5015048;28;21767;-79
2022/05/17 04:41:43;;;;;;;6.43;3.17;;;;;;;12.66;100.00;101943.44;5032762;28;20775;-80
2022/05/17 04:44:09;;;;;;;8.98;3.50;;;;;;;12.71;100.00;101946.81;5032813;28;20037;-79
2022/05/17 04:46:35;;;;;;;10.88;3.50;;;;;;;12.76;100.00;101946.63;4974569;28;20029;-80
2022/05/17 04:49:01;;;;;;;5.47;3.03;;;;;;;12.84;100.00;101949.00;5005891;28;20048;-78
2022/05/17 04:51:27;;;;;;;10.05;3.60;;;;;;;12.90;100.00;101943.44;5014585;28;20064;-80
2022/05/17 04:53:52;;;;;;;7.68;3.20;;;;;;;12.97;100.00;101944.94;4997073;28;20075;-79
2022/05/17 04:56:19;;;;;;;8.15;2.92;;;;;;;13.08;100.00;101955.16;5015014;28;20096;-80
2022/05/17 04:58:45;;;;;;;6.03;2.80;;;;;;;13.17;100.00;101954.81;5001211;28;20032;-79
2022/05/17 05:01:10;;;;;;;7.00;3.50;;;;;;;13.27;100.00;101951.78;5011275;28;20028;-80
2022/05/17 05:03:35;;;;;;;9.75;3.53;;;;;;;13.36;100.00;101943.47;5011519;28;20391;-80
2022/05/17 05:06:01;;;;;;;7.65;3.17;;;;;;;13.45;100.00;101952.84;5033087;28;20528;-80
2022/05/17 05:08:27;;;;;;;5.97;2.88;;;;;;;13.56;100.00;101955.13;5029653;28;20132;-78
2022/05/17 05:10:55;;;;;;;6.57;3.22;;;;;;;13.64;100.00;101955.69;5031274;28;22072;-80
2022/05/17 05:13:22;;;;;;;6.28;2.83;;;;;;;13.74;100.00;101949.97;5031034;28;20035;-79
2022/05/17 05:15:48;;;;;;;8.63;3.20;;;;;;;13.85;100.00;101953.06;5022114;28;20055;-79
2022/05/17 05:18:14;;;;;;;6.00;2.92;;;;;;;13.93;100.00;101956.28;5030356;28;20033;-79
2022/05/17 05:20:40;;;;;;;12.52;3.00;;;;;;;13.98;100.00;101950.75;5014109;28;20575;-80
2022/05/17 05:23:07;;;;;;;10.13;3.17;;;;;;;14.04;100.00;101961.16;5013415;28;20033;-79
2022/05/17 05:25:33;;;;;;;9.50;2.92;;;;;;;14.10;100.00;101950.22;5030600;28;20121;-78
2022/05/17 05:27:58;;;;;;;10.20;2.72;;;;;;;14.16;100.00;101961.56;5014728;28;20041;-79
2022/05/17 05:30:24;;;;;;;5.88;2.67;;;;;;;14.19;100.00;101962.28;5014465;28;20799;-79
2022/05/17 05:32:50;;;;;;;8.40;3.15;;;;;;;14.22;100.00;101962.16;4998155;28;20043;-79
2022/05/17 05:35:17;;;;;;;5.07;2.33;;;;;;;14.26;100.00;101973.53;4977417;28;20064;-79
2022/05/17 05:37:43;;;;;;;7.90;2.72;;;;;;;14.29;100.00;101973.41;5031860;28;20094;-79
2022/05/17 05:40:11;;;;;;;4.43;2.30;;;;;;;14.32;100.00;101981.25;5013647;28;20037;-79
2022/05/17 05:42:39;;;;;;;4.68;2.50;;;;;;;14.32;100.00;101983.94;5010984;28;20541;-80
2022/05/17 05:45:05;;;;;;;8.55;2.90;;;;;;;14.39;100.00;101989.88;5011340;28;20037;-80
2022/05/17 05:47:31;;;;;;;9.05;2.70;;;;;;;14.47;100.00;101998.38;5011195;28;20024;-80
2022/05/17 05:49:59;;;;;;;6.13;2.78;;;;;;;14.51;100.00;101983.97;5030056;28;20101;-80
2022/05/17 05:52:25;;;;;;;4.65;2.60;;;;;;;14.58;100.00;101994.38;5023315;28;20060;-79
2022/05/17 05:54:51;;;;;;;6.80;2.92;;;;;;;14.64;100.00;101996.78;5007616;28;20604;-81
2022/05/17 05:57:17;;;;;;;7.57;2.88;;;;;;;14.73;100.00;101991.03;5011071;28;20127;-80
2022/05/17 05:59:42;;;;;;;7.47;2.70;;;;;;;14.80;100.00;101999.66;4993720;28;20029;-80
2022/05/17 06:02:09;;;;;;;8.60;2.95;;;;;;;14.86;100.00;102004.72;5028021;28;20795;-80
2022/05/17 06:04:35;;;;;;;11.10;3.10;;;;;;;14.89;100.00;102009.91;5011805;28;20037;-79
2022/05/17 06:07:01;;;;;;;7.80;3.28;;;;;;;14.96;100.00;102005.16;5029327;28;20033;-80
2022/05/17 06:09:26;;;;;;;7.68;2.75;;;;;;;15.09;100.00;102004.59;5030189;28;20907;-80
2022/05/17 06:11:52;;;;;;;5.95;2.70;;;;;;;15.25;100.00;102010.94;5013632;28;20463;-81
2022/05/17 06:14:20;;;;;;;8.32;3.03;;;;;;;15.41;100.00;102013.75;5011236;28;20384;-80
2022/05/17 06:16:50;;;;;;;7.97;2.75;;;;;;;15.54;100.00;102003.38;5028903;28;20029;-79
2022/05/17 06:19:16;;;;;;;7.43;2.70;;;;;;;15.73;100.00;102016.69;5003229;28;20152;-81
2022/05/17 06:21:41;;;;;;;6.53;2.72;;;;;;;15.89;100.00;102013.25;5028188;28;20450;-80
2022/05/17 06:24:08;;;;;;;8.45;2.85;;;;;;;16.06;100.00;102017.78;4994786;28;20048;-78
2022/05/17 06:26:33;;;;;;;7.10;2.80;;;;;;;16.25;100.00;102019.53;4996246;28;20041;-79
2022/05/17 06:28:59;;;;;;;8.65;2.97;;;;;;;16.36;100.00;102025.22;5008668;28;20036;-79
2022/05/17 06:31:25;;;;;;;6.10;3.05;;;;;;;16.46;100.00;102024.72;5027913;28;20130;-78
2022/05/17 06:33:50;;;;;;;9.00;3.45;;;;;;;16.54;99.36;102026.06;5028656;28;20527;-80
2022/05/17 06:36:16;;;;;;;6.68;3.00;;;;;;;16.63;100.00;102032.75;5029920;28;20494;-80
2022/05/17 06:38:41;;;;;;;6.72;3.05;;;;;;;16.72;99.48;102035.88;5014542;28;20040;-80
2022/05/17 06:41:07;;;;;;;6.55;3.10;;;;;;;16.80;100.00;102028.28;5034262;28;20061;-79
2022/05/17 06:43:35;;;;;;;8.38;3.13;;;;;;;16.94;99.94;102046.28;5016181;28;20056;-78
2022/05/17 06:46:02;;;;;;;8.40;3.03;;;;;;;17.12;98.96;102048.94;5016019;28;20033;-79
2022/05/17 06:48:28;;;;;;;5.93;3.03;;;;;;;17.21;98.29;102045.78;5034241;28;20040;-78
2022/05/17 06:50:54;;;;;;;6.60;2.95;;;;;;;17.32;98.18;102056.72;5034042;28;20826;-79
2022/05/17 06:53:20;;;;;;;9.13;2.97;;;;;;;17.42;96.92;102051.75;5014701;28;20045;-79
2022/05/17 06:55:45;;;;;;;6.68;2.70;;;;;;;17.53;96.79;102051.13;5005347;28;20376;-79
2022/05/17 06:58:11;;;;;;;6.32;2.97;;;;;;;17.66;95.87;102045.97;5014837;28;20021;-79
2022/05/17 07:00:36;;;;;;;6.68;2.60;;;;;;;17.81;95.60;102051.41;5015046;28;20131;-79
2022/05/17 07:03:02;;;;;;;7.60;2.90;;;;;;;17.92;94.51;102051.63;5007319;28;20032;-78
2022/05/17 07:05:29;;;;;;;9.07;2.80;;;;;;;18.07;94.56;102057.13;5031282;28;20395;-79
2022/05/17 07:07:59;;;;;;;8.13;2.97;;;;;;;18.09;92.71;102060.56;5010730;28;20025;-78
2022/05/17 07:13:09;;;;;;;5.82;2.50;;;;;;;18.25;92.81;102056.00;5033047;28;20342;-78
2022/05/17 07:15:37;;;;;;;7.88;2.67;;;;;;;18.41;92.28;102060.47;5012676;28;20668;-79
2022/05/17 07:18:03;;;;;;;8.43;2.85;;;;;;;18.61;91.85;102061.09;5031728;28;20154;-78
2022/05/17 07:20:29;;;;;;;6.05;2.40;;;;;;;18.75;90.88;102065.63;5033668;28;20079;-80
2022/05/17 07:22:54;;;;;;;6.97;2.97;;;;;;;18.77;89.83;102066.38;5032303;28;20672;-79
2022/05/17 07:25:20;;;;;;;5.30;2.80;;;;;;;18.79;90.10;102070.69;5034081;28;20120;-80
2022/05/17 07:27:46;;;;;;;7.45;2.58;;;;;;;18.81;86.10;102065.25;5033408;28;20033;-79
2022/05/17 07:30:12;;;;;;;6.22;2.60;;;;;;;18.85;88.47;102072.16;5033524;28;20083;-79
2022/05/17 07:32:38;;;;;;;2.78;2.30;;;;;;;18.86;88.02;102077.41;5033276;28;20525;-81
2022/05/17 07:35:04;;;;;;;6.65;2.50;;;;;;;18.98;88.20;102086.53;5033063;28;20051;-77
2022/05/17 07:37:30;;;;;;;5.95;2.35;;;;;;;19.14;87.48;102090.97;5033657;28;20029;-80
2022/05/17 07:39:56;;;;;;;7.85;2.28;;;;;;;19.30;86.48;102076.59;5031997;28;20060;-80
2022/05/17 07:42:21;;;;;;;7.53;2.53;;;;;;;19.37;86.40;102077.94;5032964;28;20041;-80
2022/05/17 07:44:46;;;;;;;6.88;2.53;;;;;;;19.48;85.77;102074.56;5033350;28;20122;-78
2022/05/17 07:47:12;;;;;;;4.50;1.83;;;;;;;19.63;85.74;102073.59;5033454;28;20021;-79
2022/05/17 07:49:42;;;;;;;2.90;2.00;;;;;;;19.78;84.95;102085.13;5032664;28;20698;-79
2022/05/17 07:52:08;;;;;;;7.85;2.10;;;;;;;20.03;84.10;102083.56;5033204;28;20029;-79
2022/05/17 07:54:36;;;;;;;5.85;2.00;;;;;;;20.24;83.24;102082.22;5029577;28;20060;-80
2022/05/17 07:57:01;;;;;;;7.07;2.50;;;;;;;20.28;80.79;102086.44;5031378;28;20033;-80
2022/05/17 07:59:27;;;;;;;6.40;2.47;;;;;;;20.16;78.41;102088.13;5032984;28;20036;-78
2022/05/17 08:01:52;;;;;;;7.35;2.45;;;;;;;20.07;79.54;102087.78;5032824;28;20029;-79
2022/05/17 08:04:18;;;;;;;5.13;1.92;;;;;;;20.12;80.80;102089.28;5032100;28;20403;-81
2022/05/17 08:06:43;;;;;;;3.10;1.90;;;;;;;20.20;80.23;102085.13;5032836;28;20223;-81
2022/05/17 08:09:09;;;;;;;4.53;2.05;;;;;;;20.29;80.23;102085.47;5009950;28;20069;-78
2022/05/17 08:11:34;;;;;;;4.03;2.10;;;;;;;20.33;79.54;102089.69;5013068;28;20411;-80
2022/05/17 08:14:00;;;;;;;4.90;2.03;;;;;;;20.37;77.53;102090.34;5010955;28;20025;-78
2022/05/17 08:16:26;;;;;;;5.78;1.50;;;;;;;20.47;78.25;102086.91;5013121;28;20048;-78
2022/05/17 08:18:51;;;;;;;3.45;1.85;;;;;;;20.65;77.78;102081.25;5013180;28;20033;-79
2022/05/17 08:21:16;;;;;;;4.97;1.80;;;;;;;20.73;74.77;102080.69;5013456;28;20044;-80
2022/05/17 08:23:43;;;;;;;4.88;2.15;;;;;;;20.83;76.18;102091.69;5009813;28;21384;-79
2022/05/17 08:28:52;;;;;;;7.72;1.65;;;;;;;21.22;76.12;102089.88;5012584;28;20554;-79
2022/05/17 08:31:18;;;;;;;3.95;1.88;;;;;;;21.32;75.61;102094.59;4994788;28;20033;-79
2022/05/17 08:33:43;;;;;;;6.40;2.22;;;;;;;21.44;74.58;102091.03;5003968;28;20515;-79
2022/05/17 08:36:10;;;;;;;4.63;1.90;;;;;;;21.50;74.94;102095.09;5012369;28;20033;-79
2022/05/17 08:38:38;;;;;;;8.65;2.15;;;;;;;21.50;73.86;102093.28;5018012;28;20396;-79
2022/05/17 08:41:24;;;;;;;5.03;2.10;;;;;;;21.42;72.90;102092.97;5011611;28;20633;-80
2022/05/17 08:44:01;;;;;;;5.50;1.88;;;;;;;21.49;73.25;102088.84;5003288;28;20430;-79
2022/05/17 08:46:38;;;;;;;5.00;1.65;;;;;;;21.60;67.93;102092.59;5012429;28;20057;-80
2022/05/17 08:49:21;;;;;;;6.35;1.58;;;;;;;21.49;71.48;102099.63;5012039;28;20037;-79
2022/05/17 08:51:55;;;;;;;3.50;1.30;;;;;;;21.54;69.07;102092.09;5010335;28;20574;-79
2022/05/17 08:54:40;;;;;;;4.05;1.38;;;;;;;21.60;72.33;102090.78;5017288;28;20098;-78
2022/05/17 08:57:18;;;;;;;3.30;1.60;;;;;;;21.57;67.06;102086.47;5010844;28;20080;-79
2022/05/17 08:59:44;;;;;;;4.72;1.52;;;;;;;21.60;69.85;102087.19;5012721;28;21445;-80
2022/05/17 09:02:33;;;;;;;7.10;1.48;;;;;;;21.51;67.80;102096.84;5010224;28;20598;-78
2022/05/17 09:05:18;;;;;;;4.15;1.15;;;;;;;21.66;65.58;102094.84;5010100;28;20235;-76
2022/05/17 09:07:53;;;;;;;3.35;1.30;;;;;;;21.81;64.17;102090.19;5025279;28;20440;-77
2022/05/17 09:10:35;;;;;;;3.67;1.35;;;;;;;21.75;63.81;102090.66;5019401;28;20063;-76
2022/05/17 09:13:01;;;;;;;;;;;;;;;21.66;62.54;102089.44;5009060;28;20072;-78
2022/05/17 09:15:27;;;;;;;5.95;1.40;;;;;;;21.77;71.44;102089.56;5024965;28;20015;-77
2022/05/17 09:17:53;;;;;;;4.60;1.00;;;;;;;21.92;70.96;102100.19;5009404;28;20044;-77
2022/05/17 09:20:23;;;;;;;2.83;1.00;;;;;;;22.05;68.70;102084.81;4993098;28;20223;-77
2022/05/17 09:22:50;;;;;;;6.07;1.50;;;;;;;22.28;70.51;102087.59;5008830;28;20041;-78
2022/05/17 09:25:27;;;;;;;3.88;1.48;;;;;;;22.55;68.22;102091.88;5008875;28;20487;-78
2022/05/17 09:27:54;;;;;;;4.72;1.08;;;;;;;22.62;66.66;102089.56;5008566;28;20029;-78
2022/05/17 09:30:23;;;;;;;2.75;1.15;;;;;;;22.63;66.23;102091.28;5001209;28;20704;-77
2022/05/17 09:32:59;;;;;;;3.72;1.20;;;;;;;22.70;60.97;102097.94;5011160;28;20345;-76
2022/05/17 09:35:25;;;;;;;5.28;1.20;;;;;;;22.77;63.89;102090.22;5010286;28;20072;-78
2022/05/17 09:37:59;;;;;;;3.08;0.95;;;;;;;22.72;60.61;102087.88;5024623;28;20125;-74
2022/05/17 09:40:35;;;;;;;2.72;1.00;;;;;;;22.69;61.22;102093.50;5006433;28;20060;-77
2022/05/17 09:43:04;;;;;;;4.70;1.40;;;;;;;22.77;63.62;102091.06;5001181;28;21003;-78
2022/05/17 09:45:49;;;;;;;2.05;0.80;;;;;;;22.83;59.06;102099.69;5009268;28;20059;-78
2022/05/17 09:54:34;;;;;;;2.65;1.00;;;;;;;23.00;54.02;102101.03;5007733;28;20578;-79
2022/05/17 09:57:29;;;;;;;1.05;0.65;;;;;;;23.04;55.16;102091.72;5008945;28;20111;-79
2022/05/17 09:59:56;;;;;;;3.63;1.13;;;;;;;23.09;57.72;102096.75;4994321;28;20071;-80
2022/05/17 10:02:34;;;;;;;3.05;1.10;;;;;;;23.01;55.96;102091.97;5004366;28;20061;-79
2022/05/17 10:05:01;;;;;;;7.38;0.90;;;;;;;23.02;57.03;102086.44;5012236;28;20061;-79
2022/05/17 10:07:29;;;;;;;3.70;0.98;;;;;;;22.92;52.25;102096.25;5012200;28;20049;-80
2022/05/17 10:09:55;;;;;;;3.83;1.02;;;;;;;22.89;56.29;102083.00;5012855;28;20077;-80
2022/05/17 10:12:28;;;;;;;3.30;1.08;;;;;;;23.04;55.71;102086.34;5012322;28;20559;-80
2022/05/17 10:14:56;;;;;;;5.03;0.80;;;;;;;23.07;54.95;102088.78;5011408;28;20041;-80
2022/05/17 10:17:32;;;;;;;1.88;0.65;;;;;;;23.10;53.09;102085.81;5012594;28;20030;-79
2022/05/17 10:20:00;;;;;;;3.70;0.95;;;;;;;23.15;53.51;102083.63;5020144;28;20061;-79
2022/05/17 10:22:37;;;;;;;2.67;0.85;;;;;;;22.98;48.52;102087.66;5011024;28;20037;-79
2022/05/17 10:25:09;;;;;;;3.35;0.70;;;;;;;22.80;53.76;102081.88;5009753;28;20060;-80
2022/05/17 10:27:38;;;;;;;5.07;1.10;;;;;;;22.78;55.67;102082.00;5011357;28;20033;-79
2022/05/17 10:30:10;;;;;;;1.92;0.90;;;;;;;22.87;55.69;102075.00;5003516;28;20033;-79
2022/05/17 10:32:48;;;;;;;3.92;0.93;;;;;;;22.81;54.00;102078.19;5011852;28;20033;-79
2022/05/17 10:35:29;;;;;;;2.60;1.05;;;;;;;22.66;54.23;102072.16;5009697;28;20577;-80
2022/05/17 10:38:18;;;;;;;4.30;0.93;;;;;;;22.68;54.69;102072.03;5012478;28;20044;-80
2022/05/17 10:40:46;;;;;;;3.05;1.10;;;;;;;22.69;54.15;102069.22;5029853;28;20128;-79
2022/05/17 10:43:23;;;;;;;1.55;0.65;;;;;;;22.63;55.06;102077.78;4991544;28;20041;-78
2022/05/17 10:46:17;;;;;;;2.15;0.88;;;;;;;22.60;54.69;102078.06;5010633;28;20025;-79
2022/05/17 10:48:58;;;;;;;3.78;0.90;;;;;;;22.77;55.19;102079.44;5012307;28;20052;-80
2022/05/17 10:51:56;;;;;;;2.90;0.85;;;;;;;22.79;55.58;102082.84;5014347;28;20543;-79
2022/05/17 10:54:47;;;;;;;2.53;1.08;;;;;;;22.85;54.06;102085.09;5008050;28;20145;-80
2022/05/17 10:57:31;;;;;;;2.33;1.10;;;;;;;23.03;55.81;102074.66;5005829;28;20547;-80
2022/05/17 11:00:14;;;;;;;1.95;0.82;;;;;;;23.20;54.68;102085.94;5022745;28;20043;-80
2022/05/17 11:02:52;;;;;;;1.67;0.80;;;;;;;23.37;54.26;102076.50;4995488;28;20048;-79
2022/05/17 11:05:39;;;;;;;2.63;0.88;;;;;;;23.43;53.45;102081.41;5010642;28;20575;-80
2022/05/17 11:08:52;;;;;;;2.90;1.05;;;;;;;23.43;50.59;102076.00;5009332;28;20091;-79
2022/05/17 11:11:21;;;;;;;3.78;0.93;;;;;;;23.55;52.99;102079.56;4991958;28;20541;-79
2022/05/17 11:14:07;;;;;;;5.03;1.27;;;;;;;23.50;51.71;102070.09;5032349;28;20041;-79
2022/05/17 11:16:42;;;;;;;2.85;0.80;;;;;;;23.59;52.03;102072.91;5021684;28;20112;-79
2022/05/17 11:19:14;;;;;;;2.08;0.80;;;;;;;23.66;52.91;102067.00;5030988;28;20522;-78
2022/05/17 11:21:49;;;;;;;3.92;1.15;;;;;;;23.80;52.16;102066.72;5027890;28;20026;-78
2022/05/17 11:24:35;;;;;;;1.35;0.70;;;;;;;23.91;48.87;102070.38;5026906;28;20442;-78
2022/05/17 11:27:01;;;;;;;1.98;0.65;;;;;;;23.86;52.38;102068.91;5004829;28;20059;-79
2022/05/17 11:29:48;;;;;;;2.17;0.77;;;;;;;23.69;49.21;102067.63;5014483;28;20471;-78
2022/05/17 11:32:33;;;;;;;2.88;0.70;;;;;;;23.68;51.25;102062.31;5031123;28;20471;-77
2022/05/17 11:35:26;;;;;;;2.15;1.13;;;;;;;23.68;50.66;102063.19;5014682;28;20037;-79
2022/05/17 11:37:53;;;;;;;2.80;1.00;;;;;;;23.56;52.21;102061.50;5026161;28;20033;-77
2022/05/17 11:40:38;;;;;;;2.20;1.05;;;;;;;23.33;51.00;102066.94;5014498;28;20083;-78
2022/05/17 11:45:53;;;;;;;4.57;1.00;;;;;;;22.79;52.89;102058.56;5009252;28;20124;-78